Página principal
METAR-TAF:

METAR-TAF

Aeroportos :

Kuwait, Kuwait

Aeroporto Internacional do Kuwait

latitude: 29-13N, longitude: 047-59E, altura: 55 m

Observação actual do tempo

O boletim foi feito há 42 minutos, às 23:00 UTC
Vento 4 kt de oes-noroeste
Temperatura 14°C
Humidade 44%
Pressão 1013 hPa
Visibilidade: 6000 m
Céu limpo

METAR: OKBK 182300Z 29004KT 6000 SKC 14/02 Q1013 NOSIG

Hora: 02:42 (23:42 UTC)

Previsão

O boletim foi feito há 6 horas e 57 minutos, às 16:45 UTC
Previsão válida de 18 às 18 UTC a 19 às 24 UTC
Vento 10 kt de nor-noroeste
Visibilidade: 3000 m
bruma
Tornando-se
de 18 às 20 UTC a 18 às 22 UTC
Visibilidade: 6000 m

TAF: OKBK 181645Z 1818/1924 34010KT 3000 HZ NSC BECMG 1820/1822 6000

Observações e previsões do tempo de mais de 4000 aeroportos (mensagens METAR e TAF).

As estações disponíveis são os pontos amarelos e vermelhos sobre o mapa.

Mova o rato sobre o mapa para ver o nome da estação.

Depois clique no ponto para visualizar as observações e previsões meteorológicas.

Para alterar o mapa : clique nos botões verdes com uma cruz preta para aumentar o zoom; no botão verde com uma pitada de zoom; ou nas setas verdes para mapas adjacentes.


METAR-TAF: